首页
METAR-TAF:

METAR-TAF

机场 :

蒂米什瓦拉, 罗马尼亚

纬度: 45-46N, 经度: 021-15E, 海拔: 86米

当前天气观测

该预报发布于20分钟前的22:00 UTC
风速4节,风向南转南东
温度 11°C
湿度 100%
气压 1006 hPa
能见度10公里或以上
1500米以下无云,无积雨云

METAR: LRTR 032200Z 16004KT CAVOK 11/11 Q1006 R11/290095

时间: 01:20 (22:20 UTC)

预报

该预报发布于5小时和20分钟前的17:00 UTC
预报有效从03日的 18点(UTC)到 04日的 18点(UTC)
风速12节,风向南转南东
能见度10公里或以上
1500米以下无云,无积雨云
几率 40% :
短暂存在
从 03日的 18点(UTC)到 03日的 20点(UTC)
风速15节,风向多变
能見度: 5000
散云层高于4000英尺, 积雨云.
雷暴, 小雨
成为
从 04日的 00点(UTC)到 04日的 02点(UTC)
风速4节,风向多变
短暂存在
从 04日的 04点(UTC)到 04日的 10点(UTC)
能見度: 5000
多云层高于1000英尺
散云层高于4000英尺, 积雨云.
雷暴, 小雨
成为
从 04日的 08点(UTC)到 04日的 10点(UTC)
风速10节,风向南转西南
短暂存在
从 04日的 12点(UTC)到 04日的 15点(UTC)
风速15节,风向,有时为25节阵风
短暂存在
从 04日的 15点(UTC)到 04日的 18点(UTC)
散云层高于4000英尺, 积雨云.

TAF: LRTR 031700Z 0318/0418 15012KT CAVOK PROB40 TEMPO 0318/0320 VRB15KT 5000 -TSRA SCT040CB BECMG 0400/0402 VRB04KT TEMPO 0404/0410 5000 -TSRA BKN010 SCT040CB BECMG 0408/0410 20010KT TEMPO 0412/0415 18015G25KT TEMPO 0415/0418 SCT040CB

超过4000个机场的气象观测和天气预报(METAR&TAF报告)。

可查询的气象台以黄色和红色小点在地图上表示。

将鼠标移到小点上方,可查看气象台名称。

然后点击查看天气观测和预报。

如需切换地图:点击带黑十字的绿色按钮放大地图;点击带横线的绿色按钮缩小地图;或者点击绿色箭头查看邻近地区的地图。


METAR-TAF: